sensor_id;sensor_type;location;lat;lon;timestamp;P1;durP1;ratioP1;P2;durP2;ratioP2
9834;SDS011;4956;50.996;13.716;2022-07-24T00:01:30;6.47;;;5.32;;
9834;SDS011;4956;50.996;13.716;2022-07-24T00:04:50;5.78;;;5.00;;
9834;SDS011;4956;50.996;13.716;2022-07-24T00:08:10;5.43;;;4.90;;
9834;SDS011;4956;50.996;13.716;2022-07-24T00:11:31;6.13;;;5.30;;
9834;SDS011;4956;50.996;13.716;2022-07-24T00:14:51;5.55;;;5.03;;
9834;SDS011;4956;50.996;13.716;2022-07-24T00:18:12;6.17;;;4.90;;
9834;SDS011;4956;50.996;13.716;2022-07-24T00:21:32;6.13;;;5.32;;
9834;SDS011;4956;50.996;13.716;2022-07-24T00:24:52;5.75;;;5.22;;
9834;SDS011;4956;50.996;13.716;2022-07-24T00:28:13;5.63;;;5.03;;
9834;SDS011;4956;50.996;13.716;2022-07-24T00:31:33;5.97;;;5.38;;
9834;SDS011;4956;50.996;13.716;2022-07-24T00:34:54;7.25;;;5.00;;
9834;SDS011;4956;50.996;13.716;2022-07-24T00:38:14;5.65;;;5.03;;
9834;SDS011;4956;50.996;13.716;2022-07-24T00:41:34;5.33;;;4.83;;
9834;SDS011;4956;50.996;13.716;2022-07-24T00:44:55;6.32;;;5.30;;
9834;SDS011;4956;50.996;13.716;2022-07-24T00:48:15;5.88;;;5.28;;
9834;SDS011;4956;50.996;13.716;2022-07-24T00:51:36;6.50;;;5.00;;
9834;SDS011;4956;50.996;13.716;2022-07-24T00:54:56;5.13;;;4.60;;
9834;SDS011;4956;50.996;13.716;2022-07-24T00:58:16;7.60;;;4.55;;
9834;SDS011;4956;50.996;13.716;2022-07-24T01:01:37;5.25;;;4.47;;
9834;SDS011;4956;50.996;13.716;2022-07-24T01:04:57;4.70;;;4.30;;
9834;SDS011;4956;50.996;13.716;2022-07-24T01:08:18;4.80;;;4.40;;
9834;SDS011;4956;50.996;13.716;2022-07-24T01:11:38;6.07;;;4.47;;
9834;SDS011;4956;50.996;13.716;2022-07-24T01:14:59;6.40;;;4.30;;
9834;SDS011;4956;50.996;13.716;2022-07-24T01:18:19;4.40;;;4.00;;
9834;SDS011;4956;50.996;13.716;2022-07-24T01:21:44;4.20;;;3.80;;
9834;SDS011;4956;50.996;13.716;2022-07-24T01:25:05;5.72;;;4.05;;
9834;SDS011;4956;50.996;13.716;2022-07-24T01:28:26;4.65;;;4.15;;
9834;SDS011;4956;50.996;13.716;2022-07-24T01:31:46;3.97;;;3.60;;
9834;SDS011;4956;50.996;13.716;2022-07-24T01:35:07;4.00;;;3.60;;
9834;SDS011;4956;50.996;13.716;2022-07-24T01:38:27;4.60;;;3.95;;
9834;SDS011;4956;50.996;13.716;2022-07-24T01:41:48;5.68;;;4.20;;
9834;SDS011;4956;50.996;13.716;2022-07-24T01:45:08;4.25;;;3.85;;
9834;SDS011;4956;50.996;13.716;2022-07-24T01:48:29;4.45;;;4.05;;
9834;SDS011;4956;50.996;13.716;2022-07-24T01:51:49;6.50;;;4.30;;
9834;SDS011;4956;50.996;13.716;2022-07-24T01:55:10;5.00;;;4.20;;
9834;SDS011;4956;50.996;13.716;2022-07-24T01:58:30;4.97;;;4.47;;
9834;SDS011;4956;50.996;13.716;2022-07-24T02:01:50;5.50;;;4.73;;
9834;SDS011;4956;50.996;13.716;2022-07-24T02:05:12;5.97;;;5.38;;
9834;SDS011;4956;50.996;13.716;2022-07-24T02:08:35;5.50;;;5.00;;
9834;SDS011;4956;50.996;13.716;2022-07-24T02:11:56;7.83;;;5.60;;
9834;SDS011;4956;50.996;13.716;2022-07-24T02:15:16;6.20;;;5.27;;
9834;SDS011;4956;50.996;13.716;2022-07-24T02:18:36;6.38;;;5.38;;
9834;SDS011;4956;50.996;13.716;2022-07-24T02:21:56;5.60;;;4.97;;
9834;SDS011;4956;50.996;13.716;2022-07-24T02:25:17;7.27;;;5.17;;
9834;SDS011;4956;50.996;13.716;2022-07-24T02:28:37;5.38;;;4.88;;
9834;SDS011;4956;50.996;13.716;2022-07-24T02:31:58;6.40;;;5.17;;
9834;SDS011;4956;50.996;13.716;2022-07-24T02:35:18;5.80;;;5.30;;
9834;SDS011;4956;50.996;13.716;2022-07-24T02:38:39;6.45;;;5.63;;
9834;SDS011;4956;50.996;13.716;2022-07-24T02:42:00;6.38;;;5.60;;
9834;SDS011;4956;50.996;13.716;2022-07-24T02:45:20;5.88;;;5.28;;
9834;SDS011;4956;50.996;13.716;2022-07-24T02:48:41;6.43;;;5.30;;
9834;SDS011;4956;50.996;13.716;2022-07-24T02:52:02;6.57;;;5.28;;
9834;SDS011;4956;50.996;13.716;2022-07-24T02:55:22;5.82;;;5.30;;
9834;SDS011;4956;50.996;13.716;2022-07-24T02:58:48;5.88;;;5.28;;
9834;SDS011;4956;50.996;13.716;2022-07-24T03:02:08;6.97;;;4.90;;
9834;SDS011;4956;50.996;13.716;2022-07-24T03:05:28;5.70;;;5.10;;
9834;SDS011;4956;50.996;13.716;2022-07-24T03:08:49;6.43;;;5.03;;
9834;SDS011;4956;50.996;13.716;2022-07-24T03:12:11;6.20;;;4.68;;
9834;SDS011;4956;50.996;13.716;2022-07-24T03:15:31;5.60;;;4.97;;
9834;SDS011;4956;50.996;13.716;2022-07-24T03:18:52;5.85;;;5.05;;
9834;SDS011;4956;50.996;13.716;2022-07-24T03:22:12;6.63;;;5.20;;
9834;SDS011;4956;50.996;13.716;2022-07-24T03:25:33;5.50;;;5.00;;
9834;SDS011;4956;50.996;13.716;2022-07-24T03:28:53;6.00;;;5.40;;
9834;SDS011;4956;50.996;13.716;2022-07-24T03:32:13;5.60;;;4.90;;
9834;SDS011;4956;50.996;13.716;2022-07-24T03:35:34;5.63;;;5.07;;
9834;SDS011;4956;50.996;13.716;2022-07-24T03:38:54;5.70;;;5.10;;
9834;SDS011;4956;50.996;13.716;2022-07-24T03:42:14;5.57;;;5.00;;
9834;SDS011;4956;50.996;13.716;2022-07-24T03:45:35;7.72;;;5.45;;
9834;SDS011;4956;50.996;13.716;2022-07-24T03:48:55;7.22;;;5.45;;
9834;SDS011;4956;50.996;13.716;2022-07-24T03:52:16;7.90;;;5.18;;
9834;SDS011;4956;50.996;13.716;2022-07-24T03:55:36;5.75;;;4.82;;
9834;SDS011;4956;50.996;13.716;2022-07-24T03:58:56;4.85;;;4.43;;
9834;SDS011;4956;50.996;13.716;2022-07-24T04:02:17;5.00;;;4.50;;
9834;SDS011;4956;50.996;13.716;2022-07-24T04:05:37;5.23;;;4.73;;
9834;SDS011;4956;50.996;13.716;2022-07-24T04:08:57;5.57;;;5.07;;
9834;SDS011;4956;50.996;13.716;2022-07-24T04:12:18;6.10;;;4.82;;
9834;SDS011;4956;50.996;13.716;2022-07-24T04:15:39;9.02;;;5.20;;
9834;SDS011;4956;50.996;13.716;2022-07-24T04:18:59;6.27;;;5.10;;
9834;SDS011;4956;50.996;13.716;2022-07-24T04:22:19;8.57;;;4.80;;
9834;SDS011;4956;50.996;13.716;2022-07-24T04:25:39;6.77;;;5.10;;
9834;SDS011;4956;50.996;13.716;2022-07-24T04:29:00;5.57;;;5.07;;
9834;SDS011;4956;50.996;13.716;2022-07-24T04:32:20;5.30;;;4.80;;
9834;SDS011;4956;50.996;13.716;2022-07-24T04:35:40;6.17;;;4.80;;
9834;SDS011;4956;50.996;13.716;2022-07-24T04:39:01;5.73;;;4.80;;
9834;SDS011;4956;50.996;13.716;2022-07-24T04:42:21;5.63;;;4.60;;
9834;SDS011;4956;50.996;13.716;2022-07-24T04:45:41;5.17;;;4.60;;
9834;SDS011;4956;50.996;13.716;2022-07-24T04:49:01;6.17;;;4.70;;
9834;SDS011;4956;50.996;13.716;2022-07-24T04:52:22;6.10;;;4.60;;
9834;SDS011;4956;50.996;13.716;2022-07-24T04:55:42;8.67;;;4.93;;
9834;SDS011;4956;50.996;13.716;2022-07-24T04:59:02;5.40;;;4.90;;
9834;SDS011;4956;50.996;13.716;2022-07-24T05:02:23;6.63;;;5.23;;
9834;SDS011;4956;50.996;13.716;2022-07-24T05:05:43;4.78;;;4.30;;
9834;SDS011;4956;50.996;13.716;2022-07-24T05:09:04;5.43;;;4.88;;
9834;SDS011;4956;50.996;13.716;2022-07-24T05:12:27;5.72;;;4.47;;
9834;SDS011;4956;50.996;13.716;2022-07-24T05:15:47;6.03;;;4.93;;
9834;SDS011;4956;50.996;13.716;2022-07-24T05:19:07;5.10;;;4.60;;
9834;SDS011;4956;50.996;13.716;2022-07-24T05:22:28;5.00;;;4.47;;
9834;SDS011;4956;50.996;13.716;2022-07-24T05:25:48;4.80;;;4.40;;
9834;SDS011;4956;50.996;13.716;2022-07-24T05:29:08;4.88;;;4.45;;
9834;SDS011;4956;50.996;13.716;2022-07-24T05:32:29;6.07;;;4.40;;
9834;SDS011;4956;50.996;13.716;2022-07-24T05:35:49;5.57;;;5.03;;
9834;SDS011;4956;50.996;13.716;2022-07-24T05:39:09;5.97;;;4.30;;
9834;SDS011;4956;50.996;13.716;2022-07-24T05:42:30;5.03;;;4.53;;
9834;SDS011;4956;50.996;13.716;2022-07-24T05:45:50;5.93;;;4.93;;
9834;SDS011;4956;50.996;13.716;2022-07-24T05:49:10;6.33;;;4.47;;
9834;SDS011;4956;50.996;13.716;2022-07-24T05:52:30;5.23;;;4.53;;
9834;SDS011;4956;50.996;13.716;2022-07-24T05:55:51;4.70;;;4.30;;
9834;SDS011;4956;50.996;13.716;2022-07-24T05:59:11;4.95;;;4.43;;
9834;SDS011;4956;50.996;13.716;2022-07-24T06:02:31;4.67;;;4.10;;
9834;SDS011;4956;50.996;13.716;2022-07-24T06:05:52;5.00;;;4.07;;
9834;SDS011;4956;50.996;13.716;2022-07-24T06:09:12;5.03;;;3.83;;
9834;SDS011;4956;50.996;13.716;2022-07-24T06:12:32;5.07;;;3.87;;
9834;SDS011;4956;50.996;13.716;2022-07-24T06:15:52;6.63;;;3.87;;
9834;SDS011;4956;50.996;13.716;2022-07-24T06:19:15;3.13;;;2.80;;
9834;SDS011;4956;50.996;13.716;2022-07-24T06:22:35;3.40;;;3.10;;
9834;SDS011;4956;50.996;13.716;2022-07-24T06:25:55;3.83;;;2.80;;
9834;SDS011;4956;50.996;13.716;2022-07-24T06:29:16;3.50;;;2.80;;
9834;SDS011;4956;50.996;13.716;2022-07-24T06:32:36;3.40;;;2.72;;
9834;SDS011;4956;50.996;13.716;2022-07-24T06:35:56;4.30;;;3.30;;
9834;SDS011;4956;50.996;13.716;2022-07-24T06:39:17;3.53;;;3.23;;
9834;SDS011;4956;50.996;13.716;2022-07-24T06:42:38;6.53;;;4.20;;
9834;SDS011;4956;50.996;13.716;2022-07-24T06:45:58;6.68;;;4.20;;
9834;SDS011;4956;50.996;13.716;2022-07-24T06:49:18;4.17;;;3.77;;
9834;SDS011;4956;50.996;13.716;2022-07-24T06:52:39;3.75;;;3.45;;
9834;SDS011;4956;50.996;13.716;2022-07-24T06:56:00;4.47;;;3.22;;
9834;SDS011;4956;50.996;13.716;2022-07-24T06:59:21;2.80;;;2.60;;
9834;SDS011;4956;50.996;13.716;2022-07-24T07:02:41;3.90;;;3.50;;
9834;SDS011;4956;50.996;13.716;2022-07-24T07:06:01;2.90;;;2.57;;
9834;SDS011;4956;50.996;13.716;2022-07-24T07:09:22;2.85;;;2.50;;
9834;SDS011;4956;50.996;13.716;2022-07-24T07:12:42;3.03;;;2.35;;
9834;SDS011;4956;50.996;13.716;2022-07-24T07:16:02;2.90;;;2.60;;
9834;SDS011;4956;50.996;13.716;2022-07-24T07:19:23;5.45;;;3.33;;
9834;SDS011;4956;50.996;13.716;2022-07-24T07:22:43;4.03;;;3.57;;
9834;SDS011;4956;50.996;13.716;2022-07-24T07:26:04;3.63;;;3.22;;
9834;SDS011;4956;50.996;13.716;2022-07-24T07:29:24;4.40;;;4.00;;
9834;SDS011;4956;50.996;13.716;2022-07-24T07:32:44;5.65;;;3.03;;
9834;SDS011;4956;50.996;13.716;2022-07-24T07:36:05;2.00;;;1.80;;
9834;SDS011;4956;50.996;13.716;2022-07-24T07:39:25;1.98;;;1.80;;
9834;SDS011;4956;50.996;13.716;2022-07-24T07:42:46;3.30;;;2.00;;
9834;SDS011;4956;50.996;13.716;2022-07-24T07:46:06;2.63;;;2.05;;
9834;SDS011;4956;50.996;13.716;2022-07-24T07:49:27;2.10;;;1.80;;
9834;SDS011;4956;50.996;13.716;2022-07-24T07:52:48;2.63;;;2.20;;
9834;SDS011;4956;50.996;13.716;2022-07-24T07:56:08;2.60;;;2.40;;
9834;SDS011;4956;50.996;13.716;2022-07-24T07:59:28;2.88;;;2.00;;
9834;SDS011;4956;50.996;13.716;2022-07-24T08:02:48;2.65;;;2.40;;
9834;SDS011;4956;50.996;13.716;2022-07-24T08:06:09;2.78;;;2.10;;
9834;SDS011;4956;50.996;13.716;2022-07-24T08:09:29;2.97;;;2.30;;
9834;SDS011;4956;50.996;13.716;2022-07-24T08:12:49;2.40;;;2.17;;
9834;SDS011;4956;50.996;13.716;2022-07-24T08:16:10;4.25;;;2.30;;
9834;SDS011;4956;50.996;13.716;2022-07-24T08:19:30;2.40;;;1.70;;
9834;SDS011;4956;50.996;13.716;2022-07-24T08:22:50;2.00;;;1.80;;
9834;SDS011;4956;50.996;13.716;2022-07-24T08:26:11;3.37;;;1.77;;
9834;SDS011;4956;50.996;13.716;2022-07-24T08:29:31;2.85;;;1.88;;
9834;SDS011;4956;50.996;13.716;2022-07-24T08:32:51;2.10;;;1.83;;
9834;SDS011;4956;50.996;13.716;2022-07-24T08:36:12;2.10;;;1.75;;
9834;SDS011;4956;50.996;13.716;2022-07-24T08:39:32;2.00;;;1.90;;
9834;SDS011;4956;50.996;13.716;2022-07-24T08:42:53;3.30;;;2.20;;
9834;SDS011;4956;50.996;13.716;2022-07-24T08:46:14;2.65;;;1.90;;
9834;SDS011;4956;50.996;13.716;2022-07-24T08:49:36;3.08;;;2.00;;
9834;SDS011;4956;50.996;13.716;2022-07-24T08:52:56;2.33;;;1.95;;
9834;SDS011;4956;50.996;13.716;2022-07-24T08:56:17;2.50;;;1.90;;
9834;SDS011;4956;50.996;13.716;2022-07-24T08:59:38;2.40;;;1.90;;
9834;SDS011;4956;50.996;13.716;2022-07-24T09:02:58;2.30;;;1.80;;
9834;SDS011;4956;50.996;13.716;2022-07-24T09:06:18;1.97;;;1.80;;
9834;SDS011;4956;50.996;13.716;2022-07-24T09:09:39;3.42;;;2.03;;
9834;SDS011;4956;50.996;13.716;2022-07-24T09:13:12;4.28;;;2.00;;
9834;SDS011;4956;50.996;13.716;2022-07-24T09:16:36;2.83;;;2.10;;
9834;SDS011;4956;50.996;13.716;2022-07-24T09:19:57;3.58;;;2.03;;
9834;SDS011;4956;50.996;13.716;2022-07-24T09:23:19;2.53;;;2.33;;
9834;SDS011;4956;50.996;13.716;2022-07-24T09:26:50;3.03;;;2.03;;
9834;SDS011;4956;50.996;13.716;2022-07-24T09:30:12;3.50;;;2.10;;
9834;SDS011;4956;50.996;13.716;2022-07-24T09:33:58;3.13;;;2.35;;
9834;SDS011;4956;50.996;13.716;2022-07-24T09:37:22;2.92;;;2.40;;
9834;SDS011;4956;50.996;13.716;2022-07-24T09:40:44;2.40;;;1.95;;
9834;SDS011;4956;50.996;13.716;2022-07-24T09:44:11;4.30;;;2.45;;
9834;SDS011;4956;50.996;13.716;2022-07-24T09:47:33;3.55;;;2.60;;
9834;SDS011;4956;50.996;13.716;2022-07-24T09:50:55;3.72;;;2.20;;
9834;SDS011;4956;50.996;13.716;2022-07-24T09:54:27;2.90;;;2.65;;
9834;SDS011;4956;50.996;13.716;2022-07-24T09:57:50;3.35;;;2.35;;
9834;SDS011;4956;50.996;13.716;2022-07-24T10:01:11;2.85;;;2.03;;
9834;SDS011;4956;50.996;13.716;2022-07-24T10:04:32;2.35;;;2.15;;
9834;SDS011;4956;50.996;13.716;2022-07-24T10:07:56;3.30;;;2.50;;
9834;SDS011;4956;50.996;13.716;2022-07-24T10:11:19;3.13;;;2.80;;
9834;SDS011;4956;50.996;13.716;2022-07-24T10:14:40;2.88;;;2.55;;
9834;SDS011;4956;50.996;13.716;2022-07-24T10:18:36;2.78;;;2.45;;
9834;SDS011;4956;50.996;13.716;2022-07-24T10:21:56;3.70;;;2.40;;
9834;SDS011;4956;50.996;13.716;2022-07-24T10:25:18;2.45;;;2.25;;
9834;SDS011;4956;50.996;13.716;2022-07-24T10:28:40;2.45;;;2.25;;
9834;SDS011;4956;50.996;13.716;2022-07-24T10:32:02;3.00;;;2.50;;
9834;SDS011;4956;50.996;13.716;2022-07-24T10:35:24;2.88;;;2.40;;
9834;SDS011;4956;50.996;13.716;2022-07-24T10:42:33;4.60;;;2.50;;
9834;SDS011;4956;50.996;13.716;2022-07-24T10:46:29;3.70;;;2.50;;
9834;SDS011;4956;50.996;13.716;2022-07-24T10:49:50;2.67;;;2.47;;
9834;SDS011;4956;50.996;13.716;2022-07-24T10:53:20;2.75;;;2.55;;
9834;SDS011;4956;50.996;13.716;2022-07-24T10:56:41;3.47;;;2.55;;
9834;SDS011;4956;50.996;13.716;2022-07-24T11:03:52;4.47;;;2.60;;
9834;SDS011;4956;50.996;13.716;2022-07-24T11:07:12;2.67;;;2.47;;
9834;SDS011;4956;50.996;13.716;2022-07-24T11:10:46;4.28;;;2.47;;
9834;SDS011;4956;50.996;13.716;2022-07-24T11:14:07;2.72;;;2.47;;
9834;SDS011;4956;50.996;13.716;2022-07-24T11:21:00;3.03;;;2.70;;
9834;SDS011;4956;50.996;13.716;2022-07-24T11:24:21;3.15;;;2.40;;
9834;SDS011;4956;50.996;13.716;2022-07-24T11:27:45;3.80;;;2.80;;
9834;SDS011;4956;50.996;13.716;2022-07-24T11:31:20;2.70;;;2.50;;
9834;SDS011;4956;50.996;13.716;2022-07-24T11:34:47;3.05;;;2.35;;
9834;SDS011;4956;50.996;13.716;2022-07-24T11:38:09;4.65;;;2.50;;
9834;SDS011;4956;50.996;13.716;2022-07-24T11:41:51;2.88;;;2.58;;
9834;SDS011;4956;50.996;13.716;2022-07-24T11:45:11;3.20;;;2.90;;
9834;SDS011;4956;50.996;13.716;2022-07-24T11:48:32;2.97;;;2.63;;
9834;SDS011;4956;50.996;13.716;2022-07-24T11:51:52;3.40;;;3.10;;
9834;SDS011;4956;50.996;13.716;2022-07-24T11:55:15;5.13;;;3.08;;
9834;SDS011;4956;50.996;13.716;2022-07-24T11:58:37;3.15;;;2.50;;
9834;SDS011;4956;50.996;13.716;2022-07-24T12:02:05;3.78;;;2.80;;
9834;SDS011;4956;50.996;13.716;2022-07-24T12:05:29;3.15;;;2.85;;
9834;SDS011;4956;50.996;13.716;2022-07-24T12:08:50;5.18;;;2.92;;
9834;SDS011;4956;50.996;13.716;2022-07-24T12:12:18;3.17;;;2.78;;
9834;SDS011;4956;50.996;13.716;2022-07-24T12:15:42;3.95;;;3.33;;
9834;SDS011;4956;50.996;13.716;2022-07-24T12:19:12;5.22;;;2.63;;
9834;SDS011;4956;50.996;13.716;2022-07-24T12:22:32;2.70;;;2.50;;
9834;SDS011;4956;50.996;13.716;2022-07-24T12:25:53;3.25;;;2.90;;
9834;SDS011;4956;50.996;13.716;2022-07-24T12:29:13;5.53;;;2.53;;
9834;SDS011;4956;50.996;13.716;2022-07-24T12:32:33;4.57;;;3.10;;
9834;SDS011;4956;50.996;13.716;2022-07-24T12:35:57;3.90;;;2.70;;
9834;SDS011;4956;50.996;13.716;2022-07-24T12:39:28;3.53;;;2.70;;
9834;SDS011;4956;50.996;13.716;2022-07-24T12:42:54;3.07;;;2.57;;
9834;SDS011;4956;50.996;13.716;2022-07-24T12:46:17;2.97;;;2.67;;
9834;SDS011;4956;50.996;13.716;2022-07-24T12:49:39;5.13;;;2.63;;
9834;SDS011;4956;50.996;13.716;2022-07-24T12:53:06;5.25;;;2.60;;
9834;SDS011;4956;50.996;13.716;2022-07-24T12:56:32;2.80;;;2.45;;
9834;SDS011;4956;50.996;13.716;2022-07-24T12:59:58;3.70;;;2.78;;
9834;SDS011;4956;50.996;13.716;2022-07-24T13:03:23;2.75;;;2.47;;
9834;SDS011;4956;50.996;13.716;2022-07-24T13:06:45;3.00;;;2.60;;
9834;SDS011;4956;50.996;13.716;2022-07-24T13:10:07;2.92;;;2.72;;
9834;SDS011;4956;50.996;13.716;2022-07-24T13:13:27;3.47;;;2.80;;
9834;SDS011;4956;50.996;13.716;2022-07-24T13:16:48;3.22;;;2.90;;
9834;SDS011;4956;50.996;13.716;2022-07-24T13:20:10;2.55;;;2.35;;
9834;SDS011;4956;50.996;13.716;2022-07-24T13:23:31;2.85;;;2.60;;
9834;SDS011;4956;50.996;13.716;2022-07-24T13:26:51;2.80;;;2.60;;
9834;SDS011;4956;50.996;13.716;2022-07-24T13:30:12;2.83;;;2.63;;
9834;SDS011;4956;50.996;13.716;2022-07-24T13:33:33;3.28;;;2.67;;
9834;SDS011;4956;50.996;13.716;2022-07-24T13:36:53;3.13;;;2.47;;
9834;SDS011;4956;50.996;13.716;2022-07-24T13:40:13;3.70;;;2.83;;
9834;SDS011;4956;50.996;13.716;2022-07-24T13:43:34;2.92;;;2.72;;
9834;SDS011;4956;50.996;13.716;2022-07-24T13:46:54;3.50;;;2.60;;
9834;SDS011;4956;50.996;13.716;2022-07-24T13:50:15;3.30;;;2.95;;
9834;SDS011;4956;50.996;13.716;2022-07-24T13:53:35;3.20;;;2.90;;
9834;SDS011;4956;50.996;13.716;2022-07-24T13:56:56;4.18;;;2.97;;
9834;SDS011;4956;50.996;13.716;2022-07-24T14:00:16;2.97;;;2.77;;
9834;SDS011;4956;50.996;13.716;2022-07-24T14:03:37;4.78;;;2.63;;
9834;SDS011;4956;50.996;13.716;2022-07-24T14:06:59;2.80;;;2.53;;
9834;SDS011;4956;50.996;13.716;2022-07-24T14:10:20;4.68;;;2.60;;
9834;SDS011;4956;50.996;13.716;2022-07-24T14:13:40;2.80;;;2.60;;
9834;SDS011;4956;50.996;13.716;2022-07-24T14:17:01;2.77;;;2.57;;
9834;SDS011;4956;50.996;13.716;2022-07-24T14:20:21;3.10;;;2.80;;
9834;SDS011;4956;50.996;13.716;2022-07-24T14:23:43;2.70;;;2.47;;
9834;SDS011;4956;50.996;13.716;2022-07-24T14:27:04;4.60;;;2.60;;
9834;SDS011;4956;50.996;13.716;2022-07-24T14:30:24;2.70;;;2.50;;
9834;SDS011;4956;50.996;13.716;2022-07-24T14:33:44;2.57;;;2.37;;
9834;SDS011;4956;50.996;13.716;2022-07-24T14:37:04;2.70;;;2.50;;
9834;SDS011;4956;50.996;13.716;2022-07-24T14:40:25;3.37;;;2.40;;
9834;SDS011;4956;50.996;13.716;2022-07-24T14:43:45;2.88;;;2.30;;
9834;SDS011;4956;50.996;13.716;2022-07-24T14:47:06;2.87;;;2.67;;
9834;SDS011;4956;50.996;13.716;2022-07-24T14:50:26;3.40;;;2.53;;
9834;SDS011;4956;50.996;13.716;2022-07-24T14:53:46;3.00;;;2.40;;
9834;SDS011;4956;50.996;13.716;2022-07-24T14:57:06;3.63;;;2.43;;
9834;SDS011;4956;50.996;13.716;2022-07-24T15:00:28;3.90;;;2.65;;
9834;SDS011;4956;50.996;13.716;2022-07-24T15:03:49;2.63;;;2.43;;
9834;SDS011;4956;50.996;13.716;2022-07-24T15:07:12;3.10;;;2.70;;
9834;SDS011;4956;50.996;13.716;2022-07-24T15:10:32;2.40;;;2.20;;
9834;SDS011;4956;50.996;13.716;2022-07-24T15:13:52;5.43;;;2.37;;
9834;SDS011;4956;50.996;13.716;2022-07-24T15:17:13;2.57;;;2.37;;
9834;SDS011;4956;50.996;13.716;2022-07-24T15:20:33;3.10;;;2.53;;
9834;SDS011;4956;50.996;13.716;2022-07-24T15:23:53;3.47;;;2.73;;
9834;SDS011;4956;50.996;13.716;2022-07-24T15:27:13;2.57;;;2.37;;
9834;SDS011;4956;50.996;13.716;2022-07-24T15:30:34;3.25;;;2.50;;
9834;SDS011;4956;50.996;13.716;2022-07-24T15:33:54;2.55;;;2.35;;
9834;SDS011;4956;50.996;13.716;2022-07-24T15:37:14;3.90;;;2.37;;
9834;SDS011;4956;50.996;13.716;2022-07-24T15:40:35;2.60;;;2.40;;
9834;SDS011;4956;50.996;13.716;2022-07-24T15:43:55;2.73;;;2.30;;
9834;SDS011;4956;50.996;13.716;2022-07-24T15:47:15;2.17;;;2.07;;
9834;SDS011;4956;50.996;13.716;2022-07-24T15:50:38;2.67;;;2.47;;
9834;SDS011;4956;50.996;13.716;2022-07-24T15:53:58;3.53;;;2.20;;
9834;SDS011;4956;50.996;13.716;2022-07-24T15:57:19;2.53;;;2.30;;
9834;SDS011;4956;50.996;13.716;2022-07-24T16:00:39;2.40;;;2.20;;
9834;SDS011;4956;50.996;13.716;2022-07-24T16:03:59;2.20;;;2.00;;
9834;SDS011;4956;50.996;13.716;2022-07-24T16:07:22;2.70;;;2.10;;
9834;SDS011;4956;50.996;13.716;2022-07-24T16:10:42;2.28;;;2.08;;
9834;SDS011;4956;50.996;13.716;2022-07-24T16:14:03;2.60;;;2.40;;
9834;SDS011;4956;50.996;13.716;2022-07-24T16:17:23;3.70;;;2.40;;
9834;SDS011;4956;50.996;13.716;2022-07-24T16:20:45;2.53;;;2.15;;
9834;SDS011;4956;50.996;13.716;2022-07-24T16:24:05;2.60;;;2.17;;
9834;SDS011;4956;50.996;13.716;2022-07-24T16:27:26;4.03;;;2.10;;
9834;SDS011;4956;50.996;13.716;2022-07-24T16:30:47;2.55;;;2.35;;
9834;SDS011;4956;50.996;13.716;2022-07-24T16:34:07;2.27;;;2.07;;
9834;SDS011;4956;50.996;13.716;2022-07-24T16:37:28;2.72;;;2.38;;
9834;SDS011;4956;50.996;13.716;2022-07-24T16:40:48;2.30;;;2.10;;
9834;SDS011;4956;50.996;13.716;2022-07-24T16:44:08;4.83;;;2.50;;
9834;SDS011;4956;50.996;13.716;2022-07-24T16:47:29;2.77;;;2.30;;
9834;SDS011;4956;50.996;13.716;2022-07-24T16:50:49;4.85;;;2.20;;
9834;SDS011;4956;50.996;13.716;2022-07-24T16:54:10;2.35;;;2.15;;
9834;SDS011;4956;50.996;13.716;2022-07-24T16:57:31;3.80;;;2.20;;
9834;SDS011;4956;50.996;13.716;2022-07-24T17:00:51;3.20;;;2.33;;
9834;SDS011;4956;50.996;13.716;2022-07-24T17:04:11;2.33;;;2.13;;
9834;SDS011;4956;50.996;13.716;2022-07-24T17:07:31;6.68;;;2.58;;
9834;SDS011;4956;50.996;13.716;2022-07-24T17:10:52;3.17;;;2.70;;
9834;SDS011;4956;50.996;13.716;2022-07-24T17:14:12;3.77;;;2.77;;
9834;SDS011;4956;50.996;13.716;2022-07-24T17:17:33;5.13;;;3.38;;
9834;SDS011;4956;50.996;13.716;2022-07-24T17:21:12;6.55;;;3.88;;
9834;SDS011;4956;50.996;13.716;2022-07-24T17:24:32;3.90;;;3.40;;
9834;SDS011;4956;50.996;13.716;2022-07-24T17:27:53;9.07;;;5.70;;
9834;SDS011;4956;50.996;13.716;2022-07-24T17:31:13;2.72;;;2.30;;
9834;SDS011;4956;50.996;13.716;2022-07-24T17:34:35;2.50;;;2.30;;
9834;SDS011;4956;50.996;13.716;2022-07-24T17:37:56;2.70;;;2.20;;
9834;SDS011;4956;50.996;13.716;2022-07-24T17:41:16;2.30;;;2.10;;
9834;SDS011;4956;50.996;13.716;2022-07-24T17:44:37;2.93;;;2.30;;
9834;SDS011;4956;50.996;13.716;2022-07-24T17:47:58;3.05;;;2.20;;
9834;SDS011;4956;50.996;13.716;2022-07-24T17:51:18;2.27;;;2.07;;
9834;SDS011;4956;50.996;13.716;2022-07-24T17:54:38;2.67;;;2.20;;
9834;SDS011;4956;50.996;13.716;2022-07-24T17:57:59;3.85;;;2.40;;
9834;SDS011;4956;50.996;13.716;2022-07-24T18:01:19;2.40;;;2.20;;
9834;SDS011;4956;50.996;13.716;2022-07-24T18:04:39;2.30;;;2.10;;
9834;SDS011;4956;50.996;13.716;2022-07-24T18:07:59;2.50;;;2.30;;
9834;SDS011;4956;50.996;13.716;2022-07-24T18:11:20;2.90;;;2.27;;
9834;SDS011;4956;50.996;13.716;2022-07-24T18:14:40;2.38;;;2.15;;
9834;SDS011;4956;50.996;13.716;2022-07-24T18:18:00;3.33;;;2.67;;
9834;SDS011;4956;50.996;13.716;2022-07-24T18:21:21;2.40;;;2.20;;
9834;SDS011;4956;50.996;13.716;2022-07-24T18:24:41;3.70;;;2.60;;
9834;SDS011;4956;50.996;13.716;2022-07-24T18:28:01;2.40;;;2.20;;
9834;SDS011;4956;50.996;13.716;2022-07-24T18:31:22;3.67;;;2.40;;
9834;SDS011;4956;50.996;13.716;2022-07-24T18:34:42;2.50;;;2.23;;
9834;SDS011;4956;50.996;13.716;2022-07-24T18:38:02;2.20;;;2.00;;
9834;SDS011;4956;50.996;13.716;2022-07-24T18:41:22;2.70;;;2.17;;
9834;SDS011;4956;50.996;13.716;2022-07-24T18:44:43;3.30;;;2.80;;
9834;SDS011;4956;50.996;13.716;2022-07-24T18:48:06;3.50;;;2.85;;
9834;SDS011;4956;50.996;13.716;2022-07-24T18:51:26;3.38;;;3.08;;
9834;SDS011;4956;50.996;13.716;2022-07-24T18:54:47;3.33;;;3.03;;
9834;SDS011;4956;50.996;13.716;2022-07-24T18:58:07;4.70;;;3.50;;
9834;SDS011;4956;50.996;13.716;2022-07-24T19:01:27;4.37;;;3.73;;
9834;SDS011;4956;50.996;13.716;2022-07-24T19:04:50;4.53;;;3.47;;
9834;SDS011;4956;50.996;13.716;2022-07-24T19:08:10;3.37;;;3.07;;
9834;SDS011;4956;50.996;13.716;2022-07-24T19:11:30;2.92;;;2.72;;
9834;SDS011;4956;50.996;13.716;2022-07-24T19:14:51;6.65;;;3.03;;
9834;SDS011;4956;50.996;13.716;2022-07-24T19:18:12;2.95;;;2.75;;
9834;SDS011;4956;50.996;13.716;2022-07-24T19:21:32;3.53;;;2.72;;
9834;SDS011;4956;50.996;13.716;2022-07-24T19:24:52;4.53;;;2.67;;
9834;SDS011;4956;50.996;13.716;2022-07-24T19:28:13;2.70;;;2.47;;
9834;SDS011;4956;50.996;13.716;2022-07-24T19:31:33;2.97;;;2.67;;
9834;SDS011;4956;50.996;13.716;2022-07-24T19:34:54;3.08;;;2.78;;
9834;SDS011;4956;50.996;13.716;2022-07-24T19:38:15;3.22;;;2.67;;
9834;SDS011;4956;50.996;13.716;2022-07-24T19:41:35;2.60;;;2.40;;
9834;SDS011;4956;50.996;13.716;2022-07-24T19:44:55;2.57;;;2.27;;
9834;SDS011;4956;50.996;13.716;2022-07-24T19:48:15;2.40;;;2.20;;
9834;SDS011;4956;50.996;13.716;2022-07-24T19:51:36;2.83;;;2.47;;
9834;SDS011;4956;50.996;13.716;2022-07-24T19:54:56;3.40;;;2.90;;
9834;SDS011;4956;50.996;13.716;2022-07-24T19:58:16;3.40;;;3.10;;
9834;SDS011;4956;50.996;13.716;2022-07-24T20:01:37;3.53;;;3.00;;
9834;SDS011;4956;50.996;13.716;2022-07-24T20:04:57;3.20;;;2.65;;
9834;SDS011;4956;50.996;13.716;2022-07-24T20:08:18;2.85;;;2.40;;
9834;SDS011;4956;50.996;13.716;2022-07-24T20:11:38;2.83;;;2.53;;
9834;SDS011;4956;50.996;13.716;2022-07-24T20:14:58;3.03;;;2.60;;
9834;SDS011;4956;50.996;13.716;2022-07-24T20:18:19;3.37;;;2.60;;
9834;SDS011;4956;50.996;13.716;2022-07-24T20:21:39;2.75;;;2.40;;
9834;SDS011;4956;50.996;13.716;2022-07-24T20:25:00;2.65;;;2.45;;
9834;SDS011;4956;50.996;13.716;2022-07-24T20:28:20;2.63;;;2.43;;
9834;SDS011;4956;50.996;13.716;2022-07-24T20:31:40;2.37;;;2.17;;
9834;SDS011;4956;50.996;13.716;2022-07-24T20:35:00;2.50;;;2.30;;
9834;SDS011;4956;50.996;13.716;2022-07-24T20:38:21;3.97;;;2.30;;
9834;SDS011;4956;50.996;13.716;2022-07-24T20:41:42;3.13;;;2.15;;